Time;durP1;ratioP1;P1;durP2;ratioP2;P2;SDS_P1;SDS_P2;PMS_P1;PMS_P2;Temp;Humidity;BMP_temperature;BMP_pressure;BME280_temperature;BME280_humidity;BME280_pressure;Samples;Min_cycle;Max_cycle;Signal;HPM_P1;HPM_P2
2022/08/19 00:01:54;;;;;;;;;;;;;;;22.97;nan;100932.03;5059487;28;906;-42
2022/08/19 00:04:22;;;;;;;;;;;;;;;22.96;nan;100924.16;5073672;28;1308;-39
2022/08/19 00:06:49;;;;;;;;;;;;;;;22.98;nan;100923.09;5074346;28;826;-41
2022/08/19 00:09:17;;;;;;;;;;;;;;;22.76;nan;100939.72;5072554;28;1169;-44
2022/08/19 00:11:44;;;;;;;;;;;;;;;22.91;nan;100923.66;5073842;28;831;-41
2022/08/19 00:14:11;;;;;;;;;;;;;;;22.90;nan;100922.78;5073519;28;1296;-42
2022/08/19 00:16:39;;;;;;;;;;;;;;;22.86;nan;100921.31;5073334;28;1913;-42
2022/08/19 00:19:06;;;;;;;;;;;;;;;22.85;nan;100924.94;5072222;28;1272;-41
2022/08/19 00:21:38;;;;;;;;;;;;;;;22.80;nan;100914.63;5073590;28;818;-42
2022/08/19 00:24:08;;;;;;;;;;;;;;;22.86;nan;100916.84;5073777;28;1244;-40
2022/08/19 00:26:35;;;;;;;;;;;;;;;22.92;nan;100912.91;5073430;28;754;-42
2022/08/19 00:29:03;;;;;;;;;;;;;;;22.82;nan;100923.34;5069739;28;1288;-42
2022/08/19 00:31:30;;;;;;;;;;;;;;;22.81;nan;100928.75;5053298;28;980;-41
2022/08/19 00:33:57;;;;;;;;;;;;;;;22.86;nan;100924.81;5053261;28;1201;-41
2022/08/19 00:36:24;;;;;;;;;;;;;;;22.79;nan;100922.72;5052963;28;1971;-44
2022/08/19 00:38:53;;;;;;;;;;;;;;;22.77;nan;100919.31;5053553;28;1386;-42
2022/08/19 00:41:21;;;;;;;;;;;;;;;22.80;nan;100919.94;5053779;28;868;-42
2022/08/19 00:44:07;;;;;;;;;;;;;;;22.86;nan;100916.00;5053308;28;1186;-43
2022/08/19 00:46:36;;;;;;;;;;;;;;;22.87;nan;100928.31;5053510;28;704;-43
2022/08/19 00:49:06;;;;;;;;;;;;;;;22.79;nan;100922.72;5053183;28;1280;-42
2022/08/19 00:51:34;;;;;;;;;;;;;;;22.90;nan;100920.13;5053541;28;684;-44
2022/08/19 00:54:01;;;;;;;;;;;;;;;22.88;nan;100919.41;5053344;28;1205;-43
2022/08/19 00:56:30;;;;;;;;;;;;;;;22.85;nan;100911.66;5053100;28;1909;-41
2022/08/19 00:58:58;;;;;;;;;;;;;;;22.84;nan;100897.53;5052107;28;1207;-42
2022/08/19 01:01:25;;;;;;;;;;;;;;;22.89;nan;100886.56;5053319;28;911;-44
2022/08/19 01:03:52;;;;;;;;;;;;;;;22.94;nan;100884.44;5053419;28;1335;-44
2022/08/19 01:06:23;;;;;;;;;;;;;;;23.01;nan;100890.16;5053152;28;632;-41
2022/08/19 01:08:49;;;;;;;;;;;;;;;23.01;nan;100895.47;5053090;28;1384;-44
2022/08/19 01:11:16;;;;;;;;;;;;;;;22.91;nan;100892.63;5053358;28;775;-44
2022/08/19 01:13:44;;;;;;;;;;;;;;;22.90;nan;100892.72;5052900;28;1252;-42
2022/08/19 01:16:16;;;;;;;;;;;;;;;22.86;nan;100886.78;5053399;28;1975;-42
2022/08/19 01:18:43;;;;;;;;;;;;;;;22.88;nan;100887.53;5052207;28;1318;-43
2022/08/19 01:21:20;;;;;;;;;;;;;;;22.76;nan;100880.44;5053209;28;945;-43
2022/08/19 01:23:47;;;;;;;;;;;;;;;22.85;nan;100890.41;5053104;28;1276;-42
2022/08/19 01:26:16;;;;;;;;;;;;;;;22.70;nan;100887.06;5053274;28;763;-42
2022/08/19 01:28:43;;;;;;;;;;;;;;;22.76;nan;100891.91;5052648;28;1296;-42
2022/08/19 01:31:18;;;;;;;;;;;;;;;22.81;nan;100880.97;5052157;28;926;-44
2022/08/19 01:33:54;;;;;;;;;;;;;;;22.83;nan;100887.00;5052562;28;1228;-43
2022/08/19 01:36:26;;;;;;;;;;;;;;;22.71;nan;100879.91;5052583;28;1902;-43
2022/08/19 01:38:53;;;;;;;;;;;;;;;22.78;nan;100878.53;5052442;28;1213;-42
2022/08/19 01:41:23;;;;;;;;;;;;;;;22.82;nan;100869.38;5052730;28;1019;-43
2022/08/19 01:43:50;;;;;;;;;;;;;;;22.64;nan;100878.63;5052768;28;1221;-41
2022/08/19 01:46:35;;;;;;;;;;;;;;;22.68;nan;100882.78;5052801;28;783;-43
2022/08/19 01:49:03;;;;;;;;;;;;;;;22.76;nan;100883.94;5052456;28;1283;-38
2022/08/19 01:51:30;;;;;;;;;;;;;;;22.12;nan;100892.03;5052174;28;691;-41
2022/08/19 01:53:57;;;;;;;;;;;;;;;21.91;nan;100885.56;5052522;28;1233;-42
2022/08/19 01:56:24;;;;;;;;;;;;;;;21.76;nan;100890.88;5052744;28;1902;-42
2022/08/19 01:58:55;;;;;;;;;;;;;;;21.69;nan;100891.41;5050745;28;1229;-43
2022/08/19 02:01:22;;;;;;;;;;;;;;;21.62;nan;100890.09;5050921;28;878;-42
2022/08/19 02:03:49;;;;;;;;;;;;;;;21.86;nan;100883.16;5050470;28;1213;-44
2022/08/19 02:06:16;;;;;;;;;;;;;;;21.59;nan;100890.31;5050897;28;890;-45
2022/08/19 02:08:45;;;;;;;;;;;;;;;21.59;nan;100883.22;5050923;28;1296;-43
2022/08/19 02:11:19;;;;;;;;;;;;;;;21.54;nan;100881.84;5050689;28;843;-42
2022/08/19 02:13:45;;;;;;;;;;;;;;;21.39;nan;100890.78;5051148;28;1201;-46
2022/08/19 02:16:12;;;;;;;;;;;;;;;21.49;nan;100887.41;5051795;28;1898;-43
2022/08/19 02:18:39;;;;;;;;;;;;;;;21.51;nan;100888.19;5052290;28;1296;-43
2022/08/19 02:21:06;;;;;;;;;;;;;;;21.48;nan;100884.88;5052080;28;940;-43
2022/08/19 02:23:32;;;;;;;;;;;;;;;21.62;nan;100880.38;5052451;28;1229;-44
2022/08/19 02:25:59;;;;;;;;;;;;;;;21.57;nan;100876.31;5052470;28;889;-44
2022/08/19 02:28:26;;;;;;;;;;;;;;;21.58;nan;100873.56;5052468;28;1229;-42
2022/08/19 02:30:52;;;;;;;;;;;;;;;21.51;nan;100882.88;5052754;28;1336;-44
2022/08/19 02:33:19;;;;;;;;;;;;;;;21.50;nan;100883.81;5052523;28;1185;-45
2022/08/19 02:35:46;;;;;;;;;;;;;;;21.51;nan;100882.03;5052857;28;1913;-44
2022/08/19 02:38:26;;;;;;;;;;;;;;;21.48;nan;100887.53;5052654;28;1458;-45
2022/08/19 02:40:55;;;;;;;;;;;;;;;21.49;nan;100889.25;5053347;28;1081;-42
2022/08/19 02:43:22;;;;;;;;;;;;;;;21.53;nan;100890.72;5055881;28;1300;-43
2022/08/19 02:45:49;;;;;;;;;;;;;;;21.60;nan;100882.28;5056384;28;1178;-43
2022/08/19 02:48:18;;;;;;;;;;;;;;;21.53;nan;100885.41;5055995;28;1307;-44
2022/08/19 02:50:51;;;;;;;;;;;;;;;21.56;nan;100880.78;5056251;28;1158;-42
2022/08/19 02:53:18;;;;;;;;;;;;;;;21.59;nan;100879.72;5056116;28;1269;-43
2022/08/19 02:55:46;;;;;;;;;;;;;;;21.51;nan;100888.19;5056147;28;1925;-45
2022/08/19 02:58:13;;;;;;;;;;;;;;;21.56;nan;100885.22;5055723;28;1233;-41
2022/08/19 03:00:48;;;;;;;;;;;;;;;21.63;nan;100890.03;5055816;28;1058;-43
2022/08/19 03:03:16;;;;;;;;;;;;;;;21.62;nan;100898.06;5055666;28;1279;-43
2022/08/19 03:05:43;;;;;;;;;;;;;;;21.64;nan;100904.97;5055950;28;1024;-41
2022/08/19 03:08:13;;;;;;;;;;;;;;;21.61;nan;100901.69;5055863;28;1374;-45
2022/08/19 03:10:46;;;;;;;;;;;;;;;21.67;nan;100904.75;5055875;28;1258;-47
2022/08/19 03:13:16;;;;;;;;;;;;;;;21.63;nan;100905.06;5055299;28;1588;-42
2022/08/19 03:15:44;;;;;;;;;;;;;;;21.60;nan;100898.19;5055298;28;1992;-46
2022/08/19 03:18:10;;;;;;;;;;;;;;;21.44;nan;100908.09;5055254;28;1238;-46
2022/08/19 03:20:44;;;;;;;;;;;;;;;21.36;nan;100912.19;5055610;28;1143;-44
2022/08/19 03:23:12;;;;;;;;;;;;;;;21.27;nan;100908.34;5055443;28;1320;-41
2022/08/19 03:25:41;;;;;;;;;;;;;;;21.18;nan;100908.94;5055561;28;952;-42
2022/08/19 03:28:12;;;;;;;;;;;;;;;21.18;nan;100909.81;5055095;28;1273;-44
2022/08/19 03:30:40;;;;;;;;;;;;;;;21.19;nan;100908.81;5055076;28;1242;-43
2022/08/19 03:33:09;;;;;;;;;;;;;;;21.21;nan;100919.34;5055244;28;1209;-45
2022/08/19 03:35:36;;;;;;;;;;;;;;;21.16;nan;100919.63;5055412;28;1984;-48
2022/08/19 03:38:04;;;;;;;;;;;;;;;21.16;nan;100924.91;5054978;28;1217;-43
2022/08/19 03:40:30;;;;;;;;;;;;;;;21.19;nan;100921.22;5055370;28;1041;-42
2022/08/19 03:42:57;;;;;;;;;;;;;;;21.17;nan;100921.34;5054781;28;1197;-43
2022/08/19 03:45:24;;;;;;;;;;;;;;;21.20;nan;100914.97;5054781;28;1128;-43
2022/08/19 03:47:51;;;;;;;;;;;;;;;21.10;nan;100922.66;5054643;28;1185;-43
2022/08/19 03:50:19;;;;;;;;;;;;;;;21.00;nan;100915.38;5055063;28;1122;-42
2022/08/19 03:52:50;;;;;;;;;;;;;;;20.97;nan;100916.44;5053592;28;1209;-46
2022/08/19 03:55:17;;;;;;;;;;;;;;;20.98;nan;100918.13;5055070;28;1025;-41
2022/08/19 03:57:45;;;;;;;;;;;;;;;20.96;nan;100912.06;5054637;28;1906;-42
2022/08/19 04:00:12;;;;;;;;;;;;;;;20.98;nan;100904.88;5054515;28;874;-43
2022/08/19 04:02:40;;;;;;;;;;;;;;;20.97;nan;100905.84;5054317;28;1296;-43
2022/08/19 04:05:08;;;;;;;;;;;;;;;20.92;nan;100899.97;5054798;28;919;-45
2022/08/19 04:07:35;;;;;;;;;;;;;;;20.97;nan;100902.34;5054368;28;1212;-43
2022/08/19 04:10:03;;;;;;;;;;;;;;;21.00;nan;100908.28;5054683;28;1015;-43
2022/08/19 04:12:30;;;;;;;;;;;;;;;20.99;nan;100901.28;5053955;28;1679;-42
2022/08/19 04:14:58;;;;;;;;;;;;;;;21.09;nan;100906.88;5054534;28;1113;-43
2022/08/19 04:17:25;;;;;;;;;;;;;;;21.11;nan;100910.28;5053382;28;1931;-42
2022/08/19 04:19:52;;;;;;;;;;;;;;;21.25;nan;100908.44;5053985;28;1028;-41
2022/08/19 04:22:18;;;;;;;;;;;;;;;21.32;nan;100924.78;5053922;28;1224;-42
2022/08/19 04:24:45;;;;;;;;;;;;;;;21.36;nan;100933.41;5053989;28;1107;-42
2022/08/19 04:27:12;;;;;;;;;;;;;;;21.43;nan;100938.19;5053852;28;1209;-41
2022/08/19 04:29:41;;;;;;;;;;;;;;;21.43;nan;100942.66;5053771;28;918;-42
2022/08/19 04:32:07;;;;;;;;;;;;;;;21.32;nan;100942.47;5053686;28;1201;-43
2022/08/19 04:34:35;;;;;;;;;;;;;;;21.37;nan;100943.06;5054046;28;1039;-43
2022/08/19 04:37:11;;;;;;;;;;;;;;;21.46;nan;100940.63;5053934;28;1910;-43
2022/08/19 04:42:39;;;;;;;;;;;;;;;21.46;nan;100953.88;5054123;28;1360;-43
2022/08/19 04:45:09;;;;;;;;;;;;;;;21.39;nan;100951.75;5054490;28;1145;-44
2022/08/19 04:47:39;;;;;;;;;;;;;;;21.17;nan;100952.25;5054484;28;1226;-43
2022/08/19 04:50:14;;;;;;;;;;;;;;;21.17;nan;100936.38;5054440;28;1103;-42
2022/08/19 04:52:42;;;;;;;;;;;;;;;21.18;nan;100951.31;5052579;28;1217;-42
2022/08/19 04:55:13;;;;;;;;;;;;;;;21.16;nan;100954.06;5054175;28;935;-42
2022/08/19 04:57:40;;;;;;;;;;;;;;;21.13;nan;100946.31;5053915;28;1914;-42
2022/08/19 05:00:08;;;;;;;;;;;;;;;21.16;nan;100947.91;5053948;28;1553;-41
2022/08/19 05:02:35;;;;;;;;;;;;;;;21.23;nan;100946.56;5083761;28;1311;-45
2022/08/19 05:05:02;;;;;;;;;;;;;;;21.20;nan;100960.88;5078917;28;998;-43
2022/08/19 05:07:29;;;;;;;;;;;;;;;21.14;nan;100966.56;5073590;28;1209;-43
2022/08/19 05:09:56;;;;;;;;;;;;;;;21.12;nan;100979.06;5068614;28;1112;-43
2022/08/19 05:12:24;;;;;;;;;;;;;;;21.13;nan;100983.38;5053357;28;1318;-43
2022/08/19 05:14:56;;;;;;;;;;;;;;;21.13;nan;100991.34;5053849;28;1091;-42
2022/08/19 05:17:23;;;;;;;;;;;;;;;21.02;nan;100995.56;5052835;28;1918;-42
2022/08/19 05:22:55;;;;;;;;;;;;;;;21.03;nan;101006.09;5070883;28;1319;-42
2022/08/19 05:25:24;;;;;;;;;;;;;;;21.04;nan;100999.81;5073239;28;1109;-44
2022/08/19 05:27:51;;;;;;;;;;;;;;;21.13;nan;101004.59;5070695;28;1821;-43
2022/08/19 05:30:17;;;;;;;;;;;;;;;21.10;nan;101002.13;5073570;28;1021;-45
2022/08/19 05:32:59;;;;;;;;;;;;;;;21.03;nan;101006.09;5056237;28;1292;-43
2022/08/19 05:35:26;;;;;;;;;;;;;;;21.02;nan;100999.09;5053666;28;1127;-45
2022/08/19 05:37:54;;;;;;;;;;;;;;;20.93;nan;101009.41;5053463;28;1985;-42
2022/08/19 05:40:24;;;;;;;;;;;;;;;20.94;nan;101011.09;5053343;28;1032;-44
2022/08/19 05:42:51;;;;;;;;;;;;;;;20.98;nan;101015.25;5053290;28;1315;-41
2022/08/19 05:45:21;;;;;;;;;;;;;;;21.04;nan;101020.16;5053480;28;1509;-42
2022/08/19 05:47:48;;;;;;;;;;;;;;;21.04;nan;101025.47;5052929;28;1272;-41
2022/08/19 05:50:15;;;;;;;;;;;;;;;21.13;nan;101017.81;5053154;28;1094;-42
2022/08/19 05:52:41;;;;;;;;;;;;;;;21.17;nan;101032.59;5052746;28;1280;-43
2022/08/19 05:55:11;;;;;;;;;;;;;;;21.16;nan;101038.81;5051385;28;1043;-45
2022/08/19 05:57:38;;;;;;;;;;;;;;;21.16;nan;101041.47;5051013;28;1981;-44
2022/08/19 06:00:09;;;;;;;;;;;;;;;21.26;nan;101044.41;5065079;28;1008;-45
2022/08/19 06:02:36;;;;;;;;;;;;;;;21.34;nan;101051.88;5071017;28;1271;-43
2022/08/19 06:05:05;;;;;;;;;;;;;;;21.31;nan;101055.56;5071307;28;1025;-43
2022/08/19 06:07:32;;;;;;;;;;;;;;;21.23;nan;101055.19;5071269;28;1212;-42
2022/08/19 06:10:05;;;;;;;;;;;;;;;21.19;nan;101053.66;5073265;28;1048;-43
2022/08/19 06:12:34;;;;;;;;;;;;;;;21.09;nan;101050.78;5072890;28;1397;-44
2022/08/19 06:15:06;;;;;;;;;;;;;;;21.06;nan;101050.94;5073311;28;1119;-42
2022/08/19 06:17:34;;;;;;;;;;;;;;;21.10;nan;101054.25;5076371;28;1902;-44
2022/08/19 06:20:05;;;;;;;;;;;;;;;21.20;nan;101050.94;5077042;28;1047;-40
2022/08/19 06:22:37;;;;;;;;;;;;;;;21.19;nan;101045.72;5076711;28;1264;-44
2022/08/19 06:25:04;;;;;;;;;;;;;;;21.07;nan;101039.38;5077204;28;1199;-44
2022/08/19 06:27:32;;;;;;;;;;;;;;;21.14;nan;101045.19;5076712;28;1359;-44
2022/08/19 06:29:59;;;;;;;;;;;;;;;21.24;nan;101044.53;5073918;28;1552;-42
2022/08/19 06:32:26;;;;;;;;;;;;;;;21.24;nan;101039.22;5073370;28;1386;-42
2022/08/19 06:34:52;;;;;;;;;;;;;;;21.24;nan;101030.41;5075665;28;1733;-44
2022/08/19 06:37:21;;;;;;;;;;;;;;;21.30;nan;101037.13;5083028;28;1913;-43
2022/08/19 06:39:48;;;;;;;;;;;;;;;21.34;nan;101042.13;5082536;28;1174;-43
2022/08/19 06:42:18;;;;;;;;;;;;;;;21.48;nan;101035.97;5076624;28;1335;-45
2022/08/19 06:44:46;;;;;;;;;;;;;;;21.52;nan;101043.59;5081350;28;1150;-44
2022/08/19 06:47:17;;;;;;;;;;;;;;;21.59;nan;101044.91;5075923;28;1256;-41
2022/08/19 06:49:49;;;;;;;;;;;;;;;21.67;nan;101041.78;5075718;28;1115;-45
2022/08/19 06:52:16;;;;;;;;;;;;;;;21.74;nan;101043.06;5078462;28;1228;-43
2022/08/19 06:54:43;;;;;;;;;;;;;;;21.77;nan;101042.88;5075416;28;1144;-42
2022/08/19 06:57:21;;;;;;;;;;;;;;;21.77;nan;101049.03;5074822;28;1983;-43
2022/08/19 06:59:48;;;;;;;;;;;;;;;21.86;nan;101057.34;5081037;28;1058;-43
2022/08/19 07:02:15;;;;;;;;;;;;;;;22.17;nan;101059.72;5077464;28;1276;-40
2022/08/19 07:04:46;;;;;;;;;;;;;;;21.86;nan;101062.63;5075921;28;1134;-39
2022/08/19 07:07:14;;;;;;;;;;;;;;;21.96;nan;101069.94;5075390;28;1342;-40
2022/08/19 07:09:47;;;;;;;;;;;;;;;21.99;nan;101069.75;5075169;28;1516;-40
2022/08/19 07:12:17;;;;;;;;;;;;;;;22.02;nan;101069.53;5075598;28;1345;-39
2022/08/19 07:14:44;;;;;;;;;;;;;;;22.17;nan;101083.59;5075686;28;1024;-39
2022/08/19 07:17:11;;;;;;;;;;;;;;;22.11;nan;101074.25;5075251;28;1906;-36
2022/08/19 07:19:39;;;;;;;;;;;;;;;22.04;nan;101072.94;5075069;28;1075;-39
2022/08/19 07:22:06;;;;;;;;;;;;;;;22.15;nan;101080.19;5075469;28;941;-39
2022/08/19 07:24:34;;;;;;;;;;;;;;;22.18;nan;101087.97;5078231;28;1345;-39
2022/08/19 07:27:03;;;;;;;;;;;;;;;22.16;nan;101093.34;5074494;28;741;-40
2022/08/19 07:29:32;;;;;;;;;;;;;;;22.18;nan;101104.75;5074160;28;1307;-40
2022/08/19 07:32:00;;;;;;;;;;;;;;;22.30;nan;101109.22;5071332;28;979;-41
2022/08/19 07:34:28;;;;;;;;;;;;;;;22.23;nan;101110.56;5075827;28;1536;-41
2022/08/19 07:36:55;;;;;;;;;;;;;;;22.14;nan;101105.03;5076027;28;1906;-40
2022/08/19 07:39:24;;;;;;;;;;;;;;;22.25;nan;101102.53;5074774;28;1323;-43
2022/08/19 07:41:51;;;;;;;;;;;;;;;22.28;nan;101105.00;5073905;28;809;-41
2022/08/19 07:44:18;;;;;;;;;;;;;;;22.25;nan;101103.34;5074533;28;1284;-41
2022/08/19 07:46:46;;;;;;;;;;;;;;;22.28;nan;101105.00;5073525;28;787;-42
2022/08/19 07:49:18;;;;;;;;;;;;;;;22.33;nan;101105.53;5073227;28;1264;-41
2022/08/19 07:51:50;;;;;;;;;;;;;;;22.31;nan;101108.25;5073316;28;691;-40
2022/08/19 07:54:18;;;;;;;;;;;;;;;22.39;nan;101109.56;5073828;28;1264;-41
2022/08/19 07:56:45;;;;;;;;;;;;;;;22.24;nan;101114.94;5073744;28;1969;-43
2022/08/19 07:59:12;;;;;;;;;;;;;;;22.23;nan;101110.56;5074366;28;1300;-41
2022/08/19 08:01:39;;;;;;;;;;;;;;;22.36;nan;101115.94;5074029;28;743;-42
2022/08/19 08:09:43;;;;;;;;;;;;;;;22.51;nan;101112.25;5070275;28;1142;-40
2022/08/19 08:12:23;;;;;;;;;;;;;;;22.67;nan;101112.97;5074121;28;1428;-40
2022/08/19 08:15:04;;;;;;;;;;;;;;;22.79;nan;101108.63;5074459;28;1033;-41
2022/08/19 08:17:34;;;;;;;;;;;;;;;22.67;nan;101105.00;5074037;28;1902;-41
2022/08/19 08:20:14;;;;;;;;;;;;;;;22.57;nan;101097.72;5073987;28;1001;-39
2022/08/19 08:25:31;;;;;;;;;;;;;;;22.89;nan;101101.72;5073853;28;1023;-39
2022/08/19 08:28:00;;;;;;;;;;;;;;;23.04;nan;101105.97;5073933;28;1255;-42
2022/08/19 08:30:28;;;;;;;;;;;;;;;23.08;nan;101102.16;5073867;28;947;-41
2022/08/19 08:32:56;;;;;;;;;;;;;;;23.09;nan;101105.66;5073747;28;1248;-41
2022/08/19 08:35:23;;;;;;;;;;;;;;;23.08;nan;101102.16;5073719;28;1017;-39
2022/08/19 08:37:51;;;;;;;;;;;;;;;23.13;nan;101102.66;5073580;28;1973;-38
2022/08/19 08:40:27;;;;;;;;;;;;;;;23.24;nan;101104.59;5071990;28;1115;-42
2022/08/19 08:43:17;;;;;;;;;;;;;;;23.34;nan;101095.88;5072799;28;1288;-40
2022/08/19 08:45:49;;;;;;;;;;;;;;;23.42;nan;101102.47;5064991;28;1212;-40
2022/08/19 08:48:33;;;;;;;;;;;;;;;23.43;nan;101096.19;5073285;28;1300;-40
2022/08/19 08:51:01;;;;;;;;;;;;;;;23.53;nan;101089.28;5071982;28;731;-40
2022/08/19 08:53:28;;;;;;;;;;;;;;;23.59;nan;101086.19;5072732;28;1220;-42
2022/08/19 08:56:01;;;;;;;;;;;;;;;23.67;nan;101083.81;5073345;28;976;-43
2022/08/19 08:58:44;;;;;;;;;;;;;;;23.70;nan;101089.75;5073334;28;1894;-41
2022/08/19 09:01:11;;;;;;;;;;;;;;;23.77;nan;101090.16;5073110;28;861;-39
2022/08/19 09:03:41;;;;;;;;;;;;;;;23.79;nan;101091.75;5072413;28;1256;-38
2022/08/19 09:06:14;;;;;;;;;;;;;;;23.90;nan;101082.97;5072069;28;949;-39
2022/08/19 09:08:50;;;;;;;;;;;;;;;23.94;nan;101087.13;5072725;28;1248;-38
2022/08/19 09:11:40;;;;;;;;;;;;;;;23.92;nan;101087.22;5072766;28;885;-38
2022/08/19 09:14:32;;;;;;;;;;;;;;;23.97;nan;101102.00;5065205;28;1513;-39
2022/08/19 09:17:33;;;;;;;;;;;;;;;24.07;nan;101103.88;5072357;28;2189;-39
2022/08/19 09:20:27;;;;;;;;;;;;;;;24.13;nan;101099.94;5072408;28;1067;-40
2022/08/19 09:22:54;;;;;;;;;;;;;;;24.15;nan;101092.69;5071957;28;1240;-37
2022/08/19 09:25:22;;;;;;;;;;;;;;;24.25;nan;101088.41;5072956;28;1106;-40
2022/08/19 09:27:53;;;;;;;;;;;;;;;24.29;nan;101089.84;5073065;28;1300;-41
2022/08/19 09:30:23;;;;;;;;;;;;;;;24.34;nan;101085.91;5072639;28;1013;-40
2022/08/19 09:32:52;;;;;;;;;;;;;;;24.37;nan;101088.31;5072240;28;1252;-39
2022/08/19 09:35:21;;;;;;;;;;;;;;;24.44;nan;101092.22;5072660;28;1107;-40
2022/08/19 09:37:49;;;;;;;;;;;;;;;24.55;nan;101088.75;5072541;28;1972;-40
2022/08/19 09:40:16;;;;;;;;;;;;;;;24.56;nan;101086.94;5072052;28;1208;-41
2022/08/19 09:42:46;;;;;;;;;;;;;;;24.56;nan;101081.59;5072069;28;1292;-40
2022/08/19 09:45:16;;;;;;;;;;;;;;;24.78;nan;101082.50;5078216;28;1182;-38
2022/08/19 09:47:43;;;;;;;;;;;;;;;24.70;nan;101081.41;5070818;28;1279;-38
2022/08/19 09:50:11;;;;;;;;;;;;;;;24.82;nan;101084.00;5071628;28;1054;-40
2022/08/19 09:52:42;;;;;;;;;;;;;;;24.84;nan;101087.38;5071957;28;1292;-38
2022/08/19 09:55:21;;;;;;;;;;;;;;;24.88;nan;101093.34;5071918;28;1040;-40
2022/08/19 09:57:47;;;;;;;;;;;;;;;24.84;nan;101087.38;5072504;28;1902;-39
2022/08/19 10:00:14;;;;;;;;;;;;;;;25.00;nan;101087.03;5072280;28;1129;-38
2022/08/19 10:02:41;;;;;;;;;;;;;;;25.18;nan;101087.41;5072202;28;1267;-44
2022/08/19 10:07:53;;;;;;;;;;;;;;;25.02;nan;101091.28;5072244;28;1296;-37
2022/08/19 10:10:20;;;;;;;;;;;;;;;25.00;nan;101087.91;5072170;28;1077;-38
2022/08/19 10:12:48;;;;;;;;;;;;;;;25.07;nan;101090.09;5070824;28;1625;-37
2022/08/19 10:15:14;;;;;;;;;;;;;;;25.05;nan;101090.19;5072116;28;1180;-37
2022/08/19 10:17:41;;;;;;;;;;;;;;;25.29;nan;101082.94;5071518;28;1905;-37
2022/08/19 10:20:13;;;;;;;;;;;;;;;25.16;nan;101081.38;5071548;28;1077;-38
2022/08/19 10:22:41;;;;;;;;;;;;;;;25.31;nan;101081.00;5071702;28;1283;-38
2022/08/19 10:25:08;;;;;;;;;;;;;;;25.50;nan;101077.75;5071222;28;1040;-37
2022/08/19 10:27:34;;;;;;;;;;;;;;;25.40;nan;101071.44;5071575;28;1405;-38
2022/08/19 10:30:01;;;;;;;;;;;;;;;25.30;nan;101076.63;5064659;28;1471;-37
2022/08/19 10:32:29;;;;;;;;;;;;;;;25.47;nan;101075.31;5068876;28;1307;-38
2022/08/19 10:35:00;;;;;;;;;;;;;;;25.40;nan;101074.94;5069529;28;1077;-36
2022/08/19 10:37:27;;;;;;;;;;;;;;;25.45;nan;101072.75;5071806;28;1906;-37
2022/08/19 10:39:54;;;;;;;;;;;;;;;25.44;nan;101075.56;5054055;28;1101;-40
2022/08/19 10:42:21;;;;;;;;;;;;;;;25.45;nan;101067.41;5049869;28;1240;-38
2022/08/19 10:44:48;;;;;;;;;;;;;;;25.40;nan;101074.94;5053823;28;1101;-39
2022/08/19 10:47:15;;;;;;;;;;;;;;;25.77;nan;101080.03;5070877;28;1201;-38
2022/08/19 10:52:34;;;;;;;;;;;;;;;25.87;nan;101072.97;5051568;28;1371;-38
2022/08/19 10:57:51;;;;;;;;;;;;;;;25.84;nan;101070.56;5066615;28;1895;-37
2022/08/19 11:00:27;;;;;;;;;;;;;;;25.69;nan;101069.09;5052375;28;1044;-37
2022/08/19 11:02:55;;;;;;;;;;;;;;;26.27;nan;101070.53;5053920;28;1232;-40
2022/08/19 11:05:22;;;;;;;;;;;;;;;25.81;nan;101065.44;5055360;28;1018;-38
2022/08/19 11:07:51;;;;;;;;;;;;;;;26.46;nan;101071.53;5055369;28;1394;-38
2022/08/19 11:10:18;;;;;;;;;;;;;;;26.05;nan;101061.59;5055714;28;958;-38
2022/08/19 11:12:47;;;;;;;;;;;;;;;25.93;nan;101064.47;5054777;28;1205;-40
2022/08/19 11:15:15;;;;;;;;;;;;;;;25.97;nan;101063.22;5055627;28;1039;-37
2022/08/19 11:17:43;;;;;;;;;;;;;;;26.05;nan;101053.59;5054707;28;1879;-39
2022/08/19 11:20:11;;;;;;;;;;;;;;;26.51;nan;101058.63;5055197;28;981;-38
2022/08/19 11:22:39;;;;;;;;;;;;;;;25.93;nan;101054.59;5055635;28;1273;-38
2022/08/19 11:25:08;;;;;;;;;;;;;;;25.98;nan;101054.25;5073896;28;963;-38
2022/08/19 11:27:44;;;;;;;;;;;;;;;25.98;nan;101054.25;5072267;28;1299;-38
2022/08/19 11:30:12;;;;;;;;;;;;;;;26.00;nan;101057.63;5055494;28;1124;-39
2022/08/19 11:32:40;;;;;;;;;;;;;;;26.13;nan;101052.97;5054685;28;1217;-45
2022/08/19 11:35:11;;;;;;;;;;;;;;;26.08;nan;101047.19;5071500;28;1798;-42
2022/08/19 11:37:38;;;;;;;;;;;;;;;26.51;nan;101044.41;5085850;28;1969;-46
2022/08/19 11:40:06;;;;;;;;;;;;;;;26.55;nan;101048.53;5072709;28;1611;-40
2022/08/19 11:45:18;;;;;;;;;;;;;;;26.54;nan;101054.84;5072506;28;1331;-41
2022/08/19 11:47:46;;;;;;;;;;;;;;;26.50;nan;101056.09;5074143;28;1268;-41
2022/08/19 11:50:14;;;;;;;;;;;;;;;26.29;nan;101061.44;5074514;28;968;-43
2022/08/19 11:52:40;;;;;;;;;;;;;;;26.45;nan;101050.28;5077173;28;1252;-41
2022/08/19 11:55:07;;;;;;;;;;;;;;;26.39;nan;101059.66;5074775;28;1077;-42
2022/08/19 11:57:37;;;;;;;;;;;;;;;26.35;nan;101060.06;5074027;28;1346;-42
2022/08/19 12:00:06;;;;;;;;;;;;;;;26.54;nan;101057.50;5073279;28;1029;-44
2022/08/19 12:02:33;;;;;;;;;;;;;;;26.34;nan;101055.69;5068402;28;1331;-45
2022/08/19 12:05:02;;;;;;;;;;;;;;;26.42;nan;101054.06;5072965;28;950;-43
2022/08/19 12:07:32;;;;;;;;;;;;;;;26.55;nan;101062.75;5070777;28;1288;-42
2022/08/19 12:10:00;;;;;;;;;;;;;;;26.60;nan;101073.03;5076737;28;1178;-41
2022/08/19 12:12:26;;;;;;;;;;;;;;;26.66;nan;101077.03;5069682;28;1699;-44
2022/08/19 12:14:56;;;;;;;;;;;;;;;26.52;nan;101079.03;5074040;28;1103;-41
2022/08/19 12:17:23;;;;;;;;;;;;;;;26.55;nan;101089.47;5070029;28;1275;-42
2022/08/19 12:19:50;;;;;;;;;;;;;;;26.34;nan;101083.25;5073961;28;1906;-45
2022/08/19 12:22:18;;;;;;;;;;;;;;;26.58;nan;101086.53;5070803;28;1339;-39
2022/08/19 12:24:44;;;;;;;;;;;;;;;26.59;nan;101092.72;5072491;28;1016;-42
2022/08/19 12:27:11;;;;;;;;;;;;;;;26.36;nan;101091.13;5070220;28;1292;-45
2022/08/19 12:29:38;;;;;;;;;;;;;;;26.33;nan;101083.38;5073658;28;1027;-39
2022/08/19 12:32:05;;;;;;;;;;;;;;;26.29;nan;101080.13;5072554;28;1166;-41
2022/08/19 12:34:32;;;;;;;;;;;;;;;26.41;nan;101086.25;5073775;28;1288;-41
2022/08/19 12:37:01;;;;;;;;;;;;;;;26.30;nan;101071.13;5072818;28;1247;-40
2022/08/19 12:39:28;;;;;;;;;;;;;;;26.27;nan;101074.03;5074014;28;1902;-41
2022/08/19 12:41:54;;;;;;;;;;;;;;;26.44;nan;101083.34;5067123;28;952;-41
2022/08/19 12:44:22;;;;;;;;;;;;;;;26.52;nan;101071.00;5085779;28;1596;-42
2022/08/19 12:46:55;;;;;;;;;;;;;;;26.52;nan;101079.03;5067412;28;917;-39
2022/08/19 12:49:21;;;;;;;;;;;;;;;26.56;nan;101076.97;5073241;28;1178;-38
2022/08/19 12:52:08;;;;;;;;;;;;;;;26.55;nan;101081.44;5067501;28;2238;-39
2022/08/19 12:54:36;;;;;;;;;;;;;;;26.45;nan;101077.84;5073487;28;1092;-41
2022/08/19 12:57:07;;;;;;;;;;;;;;;26.42;nan;101075.44;5068723;28;978;-40
2022/08/19 12:59:37;;;;;;;;;;;;;;;26.32;nan;101066.53;5073349;28;1981;-39
2022/08/19 13:02:05;;;;;;;;;;;;;;;26.41;nan;101073.75;5069427;28;1022;-40
2022/08/19 13:04:35;;;;;;;;;;;;;;;26.56;nan;101076.97;5073151;28;1236;-40
2022/08/19 13:07:02;;;;;;;;;;;;;;;26.49;nan;101065.09;5069819;28;869;-38
2022/08/19 13:09:28;;;;;;;;;;;;;;;26.46;nan;101076.03;5073045;28;1173;-39
2022/08/19 13:11:56;;;;;;;;;;;;;;;26.43;nan;101077.13;5070591;28;1314;-40
2022/08/19 13:14:23;;;;;;;;;;;;;;;26.59;nan;101056.16;5073033;28;1331;-40
2022/08/19 13:16:50;;;;;;;;;;;;;;;26.61;nan;101069.38;5070034;28;937;-37
2022/08/19 13:19:20;;;;;;;;;;;;;;;26.48;nan;101071.38;5072434;28;1906;-38
2022/08/19 13:21:49;;;;;;;;;;;;;;;26.42;nan;101064.75;5071722;28;892;-40
2022/08/19 13:24:15;;;;;;;;;;;;;;;26.53;nan;101062.03;5072391;28;1189;-37
2022/08/19 13:26:42;;;;;;;;;;;;;;;26.48;nan;101069.56;5065503;28;908;-39
2022/08/19 13:34:53;;;;;;;;;;;;;;;26.49;nan;101062.41;5071320;28;1390;-39
2022/08/19 13:37:40;;;;;;;;;;;;;;;26.43;nan;101060.25;5070730;28;1256;-39
2022/08/19 13:40:11;;;;;;;;;;;;;;;26.41;nan;101056.88;5067225;28;1965;-39
2022/08/19 13:42:39;;;;;;;;;;;;;;;26.38;nan;101055.31;5068305;28;1295;-38
2022/08/19 13:45:06;;;;;;;;;;;;;;;26.33;nan;101056.66;5075337;28;1285;-39
2022/08/19 13:47:42;;;;;;;;;;;;;;;26.31;nan;101061.28;5067657;28;1338;-40
2022/08/19 13:50:13;;;;;;;;;;;;;;;26.50;nan;101056.97;5071489;28;1095;-40
2022/08/19 13:52:40;;;;;;;;;;;;;;;26.55;nan;101052.06;5070334;28;1331;-39